createdAt,value
2018-01-26T00:00:44.310Z,80.46
2018-01-26T00:03:11.869Z,80.54
2018-01-26T00:05:39.491Z,80.32
2018-01-26T00:08:07.070Z,80.46
2018-01-26T00:10:34.638Z,80.26
2018-01-26T00:13:02.378Z,80.56
2018-01-26T00:15:29.946Z,80.67
2018-01-26T00:17:57.498Z,80.50
2018-01-26T00:20:25.115Z,80.79
2018-01-26T00:22:52.661Z,80.76
2018-01-26T00:25:20.213Z,80.73
2018-01-26T00:27:47.886Z,80.80
2018-01-26T00:30:15.438Z,80.87
2018-01-26T00:32:43.091Z,80.49
2018-01-26T00:35:10.739Z,79.83
2018-01-26T00:37:38.457Z,79.56
2018-01-26T00:40:06.177Z,79.26
2018-01-26T00:42:33.725Z,79.46
2018-01-26T00:45:01.410Z,79.43
2018-01-26T00:47:28.954Z,79.50
2018-01-26T00:49:56.504Z,79.58
2018-01-26T00:52:24.070Z,79.66
2018-01-26T00:54:51.650Z,79.98
2018-01-26T00:57:19.497Z,80.21
2018-01-26T00:59:47.042Z,80.14
2018-01-26T01:02:14.629Z,80.26
2018-01-26T01:04:42.190Z,80.37
2018-01-26T01:07:09.737Z,80.28
2018-01-26T01:09:37.365Z,80.12
2018-01-26T01:12:04.913Z,79.63
2018-01-26T01:14:32.722Z,79.49
2018-01-26T01:17:00.274Z,79.50
2018-01-26T01:19:28.058Z,79.59
2018-01-26T01:21:55.783Z,80.23
2018-01-26T01:24:23.398Z,80.01
2018-01-26T01:26:50.946Z,79.84
2018-01-26T01:29:18.494Z,79.89
2018-01-26T01:31:46.045Z,79.67
2018-01-26T01:34:13.643Z,79.67
2018-01-26T01:36:41.194Z,79.71
2018-01-26T01:39:09.003Z,79.63
2018-01-26T01:41:36.615Z,79.60
2018-01-26T01:44:04.240Z,79.73
2018-01-26T01:46:31.830Z,79.62
2018-01-26T01:49:10.990Z,80.39
2018-01-26T01:51:38.589Z,79.94
2018-01-26T01:54:06.134Z,80.14
2018-01-26T01:56:33.685Z,80.42
2018-01-26T01:59:01.240Z,80.13
2018-01-26T02:01:29.001Z,79.91
2018-01-26T02:03:56.617Z,79.84
2018-01-26T02:06:24.239Z,80.17
2018-01-26T02:08:51.956Z,79.86
2018-01-26T02:11:19.517Z,79.68
2018-01-26T02:13:47.291Z,79.64
2018-01-26T02:16:14.910Z,80.21
2018-01-26T02:18:42.454Z,80.60
2018-01-26T02:21:10.245Z,80.75
2018-01-26T02:23:37.797Z,80.47
2018-01-26T02:26:05.354Z,80.31
2018-01-26T02:28:32.950Z,80.60
2018-01-26T02:31:00.550Z,80.35
2018-01-26T02:33:28.334Z,79.91
2018-01-26T02:35:55.886Z,79.83
2018-01-26T02:38:23.435Z,80.03
2018-01-26T02:40:51.293Z,79.90
2018-01-26T02:43:19.107Z,79.81
2018-01-26T02:45:46.830Z,79.73
2018-01-26T02:48:14.388Z,79.22
2018-01-26T02:50:42.134Z,79.53
2018-01-26T02:53:09.753Z,79.42
2018-01-26T02:55:37.497Z,79.84
2018-01-26T02:58:05.042Z,80.02
2018-01-26T03:00:32.610Z,79.89
2018-01-26T03:03:00.251Z,79.92
2018-01-26T03:05:27.846Z,79.99
2018-01-26T03:07:55.394Z,79.28
2018-01-26T03:10:23.204Z,79.45
2018-01-26T03:12:51.223Z,79.83
2018-01-26T03:15:18.765Z,79.89
2018-01-26T03:17:46.426Z,79.69
2018-01-26T03:20:14.177Z,79.84
2018-01-26T03:22:41.886Z,79.91
2018-01-26T03:25:09.443Z,79.72
2018-01-26T03:27:36.995Z,79.48
2018-01-26T03:30:04.715Z,79.34
2018-01-26T03:32:32.266Z,79.47
2018-01-26T03:34:59.990Z,79.52
2018-01-26T03:37:27.546Z,79.67
2018-01-26T03:39:55.097Z,79.26
2018-01-26T03:42:22.892Z,79.20
2018-01-26T03:44:50.433Z,79.07
2018-01-26T03:47:18.054Z,79.18
2018-01-26T03:49:45.614Z,78.86
2018-01-26T03:52:13.205Z,78.97
2018-01-26T03:54:40.972Z,79.27
2018-01-26T03:57:08.514Z,80.39
2018-01-26T03:59:36.061Z,79.58
2018-01-26T04:02:03.618Z,79.35
2018-01-26T04:04:31.167Z,78.59
2018-01-26T04:06:58.814Z,78.52
2018-01-26T04:09:26.361Z,78.41
2018-01-26T04:11:53.906Z,78.34
2018-01-26T04:14:21.464Z,78.58
2018-01-26T04:16:49.014Z,78.94
2018-01-26T04:19:16.706Z,79.41
2018-01-26T04:21:44.246Z,79.55
2018-01-26T04:24:11.794Z,79.90
2018-01-26T04:26:39.353Z,80.03
2018-01-26T04:29:06.954Z,79.87
2018-01-26T04:31:34.793Z,79.88
2018-01-26T04:34:02.410Z,79.05
2018-01-26T04:36:30.129Z,78.54
2018-01-26T04:38:57.952Z,78.68
2018-01-26T04:41:25.502Z,79.21
2018-01-26T04:43:53.093Z,79.01
2018-01-26T04:46:20.812Z,79.11
2018-01-26T04:48:48.620Z,79.09
2018-01-26T04:51:16.231Z,78.77
2018-01-26T04:53:43.862Z,78.53
2018-01-26T04:56:11.576Z,78.83
2018-01-26T04:58:39.115Z,78.67
2018-01-26T05:01:06.679Z,78.75
2018-01-26T05:03:34.242Z,78.55
2018-01-26T05:06:01.790Z,78.48
2018-01-26T05:08:29.671Z,78.84
2018-01-26T05:10:57.272Z,78.68
2018-01-26T05:13:24.813Z,78.65
2018-01-26T05:15:52.518Z,78.38
2018-01-26T05:18:20.066Z,78.21
2018-01-26T05:20:47.927Z,78.49
2018-01-26T05:23:15.574Z,78.87
2018-01-26T05:25:43.116Z,79.15
2018-01-26T05:28:10.673Z,79.53
2018-01-26T05:30:38.326Z,79.61
2018-01-26T05:33:05.921Z,79.90
2018-01-26T05:35:33.470Z,79.56
2018-01-26T05:38:01.021Z,79.36
2018-01-26T05:40:28.584Z,79.10
2018-01-26T05:42:56.133Z,78.87
2018-01-26T05:45:23.721Z,78.65
2018-01-26T05:47:51.275Z,78.65
2018-01-26T05:50:18.821Z,78.28
2018-01-26T05:52:46.386Z,78.61
2018-01-26T05:55:14.206Z,78.72
2018-01-26T05:57:41.886Z,78.56
2018-01-26T06:00:09.449Z,78.56
2018-01-26T06:02:37.055Z,78.62
2018-01-26T06:05:04.773Z,78.53
2018-01-26T06:07:32.327Z,78.42
2018-01-26T06:09:59.919Z,78.16
2018-01-26T06:12:27.478Z,77.75
2018-01-26T06:14:55.031Z,77.68
2018-01-26T06:17:22.862Z,77.69
2018-01-26T06:19:50.478Z,76.78
2018-01-26T06:22:18.198Z,76.23
2018-01-26T06:24:45.794Z,75.84
2018-01-26T06:27:13.427Z,76.30
2018-01-26T06:29:41.017Z,75.89
2018-01-26T06:32:08.675Z,75.18
2018-01-26T06:34:36.238Z,75.11
2018-01-26T06:37:03.786Z,75.21
2018-01-26T06:39:31.358Z,75.23
2018-01-26T06:41:58.918Z,74.71
2018-01-26T06:44:26.664Z,74.91
2018-01-26T06:46:54.209Z,74.71
2018-01-26T06:49:21.899Z,74.36
2018-01-26T06:51:49.590Z,73.39
2018-01-26T06:54:17.234Z,73.36
2018-01-26T06:56:44.830Z,73.41
2018-01-26T06:59:12.374Z,73.10
2018-01-26T07:01:39.932Z,73.34
2018-01-26T07:04:07.481Z,73.35
2018-01-26T07:06:35.036Z,72.03
2018-01-26T07:09:02.735Z,70.40
2018-01-26T07:11:30.655Z,66.03
2018-01-26T07:13:58.266Z,62.87
2018-01-26T07:16:25.854Z,62.66
2018-01-26T07:18:53.511Z,63.65
2018-01-26T07:21:21.075Z,64.10
2018-01-26T07:23:48.691Z,64.78
2018-01-26T07:26:16.373Z,65.30
2018-01-26T07:28:44.107Z,64.81
2018-01-26T07:31:11.802Z,64.76
2018-01-26T07:33:39.536Z,62.23
2018-01-26T07:36:07.234Z,57.55
2018-01-26T07:38:34.802Z,52.00
2018-01-26T07:41:02.385Z,46.52
2018-01-26T07:43:29.947Z,42.92
2018-01-26T07:45:57.614Z,40.45
2018-01-26T07:48:25.201Z,38.56
2018-01-26T07:50:52.760Z,37.21
2018-01-26T07:53:20.338Z,37.77
2018-01-26T07:55:47.972Z,38.04
2018-01-26T07:58:15.593Z,37.77
2018-01-26T08:00:43.314Z,36.89
2018-01-26T08:03:10.870Z,35.28
2018-01-26T08:05:38.454Z,35.81
2018-01-26T08:08:06.266Z,35.01
2018-01-26T08:10:33.893Z,33.94
2018-01-26T08:13:01.450Z,33.25
2018-01-26T08:15:29.184Z,33.80
2018-01-26T08:17:56.742Z,34.62
2018-01-26T08:20:24.291Z,33.56
2018-01-26T08:22:51.881Z,33.10
2018-01-26T08:25:19.496Z,31.63
2018-01-26T08:27:47.033Z,31.21
2018-01-26T08:30:14.606Z,30.36
2018-01-26T08:32:42.149Z,29.26
2018-01-26T08:35:09.962Z,28.88
2018-01-26T08:37:37.510Z,28.75
2018-01-26T08:40:05.272Z,29.45
2018-01-26T08:42:32.810Z,30.64
2018-01-26T08:45:00.363Z,31.84
2018-01-26T08:47:28.062Z,32.09
2018-01-26T08:49:55.605Z,31.21
2018-01-26T08:52:23.286Z,30.95
2018-01-26T08:54:50.890Z,31.76
2018-01-26T08:57:18.481Z,32.43
2018-01-26T08:59:46.030Z,32.55
2018-01-26T09:02:13.656Z,32.15
2018-01-26T09:04:41.219Z,31.87
2018-01-26T09:07:08.765Z,32.46
2018-01-26T09:09:36.354Z,32.66
2018-01-26T09:12:03.915Z,32.40
2018-01-26T09:14:31.462Z,32.98
2018-01-26T09:16:59.264Z,32.88
2018-01-26T09:19:26.816Z,32.23
2018-01-26T09:21:54.606Z,32.98
2018-01-26T09:24:22.208Z,33.15
2018-01-26T09:26:49.754Z,32.85
2018-01-26T09:29:17.362Z,32.56
2018-01-26T09:31:45.079Z,31.57
2018-01-26T09:34:12.746Z,31.13
2018-01-26T09:36:40.298Z,31.57
2018-01-26T09:39:08.031Z,31.99
2018-01-26T09:41:35.586Z,31.49
2018-01-26T09:44:03.214Z,32.31
2018-01-26T09:46:30.826Z,31.73
2018-01-26T09:48:58.366Z,30.37
2018-01-26T09:51:25.914Z,29.30
2018-01-26T09:53:53.502Z,30.48
2018-01-26T09:56:21.043Z,30.51
2018-01-26T09:58:48.661Z,30.19
2018-01-26T10:01:16.462Z,30.65
2018-01-26T10:03:44.006Z,29.76
2018-01-26T10:06:11.649Z,28.44
2018-01-26T10:08:39.202Z,27.31
2018-01-26T10:11:06.956Z,27.17
2018-01-26T10:13:34.499Z,27.46
2018-01-26T10:16:02.046Z,26.70
2018-01-26T10:18:29.793Z,27.05
2018-01-26T10:20:57.394Z,27.12
2018-01-26T10:23:25.030Z,27.68
2018-01-26T10:25:52.574Z,27.75
2018-01-26T10:28:20.135Z,27.71
2018-01-26T10:30:47.698Z,28.35
2018-01-26T10:33:15.323Z,27.82
2018-01-26T10:35:42.931Z,26.77
2018-01-26T10:38:10.598Z,27.10
2018-01-26T10:40:38.287Z,27.15
2018-01-26T10:43:05.880Z,27.02
2018-01-26T10:45:33.681Z,26.57
2018-01-26T10:48:01.286Z,27.99
2018-01-26T10:50:28.822Z,27.99
2018-01-26T10:52:56.369Z,27.30
2018-01-26T10:55:23.985Z,27.50
2018-01-26T10:57:51.830Z,27.78
2018-01-26T11:00:19.473Z,27.22
2018-01-26T11:02:47.040Z,27.47
2018-01-26T11:05:14.583Z,27.02
2018-01-26T11:07:42.246Z,27.83
2018-01-26T11:10:09.787Z,28.01
2018-01-26T11:12:37.375Z,29.28
2018-01-26T11:15:04.944Z,28.06
2018-01-26T11:17:32.639Z,28.17
2018-01-26T11:20:00.357Z,27.40
2018-01-26T11:22:27.922Z,28.12
2018-01-26T11:24:55.530Z,28.91
2018-01-26T11:27:23.078Z,29.94
2018-01-26T11:29:50.617Z,30.49
2018-01-26T11:32:18.299Z,29.34
2018-01-26T11:34:46.036Z,29.21
2018-01-26T11:37:13.781Z,28.72
2018-01-26T11:39:41.406Z,27.95
2018-01-26T11:42:08.950Z,28.11
2018-01-26T11:44:36.498Z,29.15
2018-01-26T11:47:04.093Z,29.04
2018-01-26T11:49:31.778Z,28.01
2018-01-26T11:51:59.358Z,29.91
2018-01-26T11:54:26.922Z,28.83
2018-01-26T11:56:54.518Z,29.04
2018-01-26T11:59:22.065Z,28.74
2018-01-26T12:01:49.768Z,29.72
2018-01-26T12:04:17.362Z,29.18
2018-01-26T12:06:44.987Z,30.24
2018-01-26T12:09:12.615Z,30.50
2018-01-26T12:11:40.221Z,30.64
2018-01-26T12:14:07.790Z,30.96
2018-01-26T12:16:35.374Z,29.90
2018-01-26T12:19:03.010Z,29.24
2018-01-26T12:21:30.707Z,28.59
2018-01-26T12:23:58.247Z,28.56
2018-01-26T12:26:25.838Z,27.88
2018-01-26T12:28:53.386Z,29.46
2018-01-26T12:31:20.930Z,27.50
2018-01-26T12:33:48.691Z,26.67
2018-01-26T12:36:16.238Z,25.37
2018-01-26T12:38:43.782Z,25.34
2018-01-26T12:41:11.376Z,25.35
2018-01-26T12:43:38.914Z,24.88
2018-01-26T12:46:06.455Z,25.56
2018-01-26T12:48:34.067Z,24.80
2018-01-26T12:51:01.821Z,24.37
2018-01-26T12:53:29.390Z,24.58
2018-01-26T12:55:56.978Z,24.67
2018-01-26T12:58:24.536Z,24.78
2018-01-26T13:00:52.086Z,24.64
2018-01-26T13:03:19.770Z,26.65
2018-01-26T13:05:47.314Z,27.72
2018-01-26T13:08:14.879Z,26.51
2018-01-26T13:10:42.607Z,26.66
2018-01-26T13:13:10.166Z,26.86
2018-01-26T13:15:37.701Z,27.48
2018-01-26T13:18:05.317Z,28.43
2018-01-26T13:20:32.861Z,29.15
2018-01-26T13:23:00.517Z,28.91
2018-01-26T13:25:28.310Z,28.53
2018-01-26T13:27:55.860Z,28.80
2018-01-26T13:30:23.405Z,28.27
2018-01-26T13:32:51.175Z,28.64
2018-01-26T13:35:18.725Z,26.92
2018-01-26T13:37:46.403Z,27.42
2018-01-26T13:40:14.051Z,27.87
2018-01-26T13:42:41.707Z,28.82
2018-01-26T13:45:09.306Z,28.70
2018-01-26T13:47:36.925Z,28.77
2018-01-26T13:50:04.690Z,27.85
2018-01-26T13:52:32.244Z,27.22
2018-01-26T13:54:59.925Z,27.82
2018-01-26T13:57:27.506Z,27.82
2018-01-26T13:59:55.082Z,27.81
2018-01-26T14:02:22.777Z,28.45
2018-01-26T14:04:50.396Z,27.62
2018-01-26T14:07:17.942Z,27.62
2018-01-26T14:09:45.634Z,27.51
2018-01-26T14:12:13.182Z,27.45
2018-01-26T14:14:40.758Z,27.38
2018-01-26T14:17:08.346Z,27.49
2018-01-26T14:19:35.888Z,27.13
2018-01-26T14:22:03.440Z,26.87
2018-01-26T14:24:31.093Z,27.40
2018-01-26T14:26:58.635Z,28.45
2018-01-26T14:29:26.242Z,29.34
2018-01-26T14:31:53.830Z,28.74
2018-01-26T14:34:21.386Z,28.88
2018-01-26T14:36:48.934Z,30.63
2018-01-26T14:39:16.525Z,31.49
2018-01-26T14:41:44.058Z,31.80
2018-01-26T14:44:11.605Z,33.47
2018-01-26T14:46:39.230Z,34.23
2018-01-26T14:49:06.774Z,34.60
2018-01-26T14:51:34.533Z,35.61
2018-01-26T14:54:02.262Z,35.95
2018-01-26T14:56:29.974Z,36.93
2018-01-26T14:58:57.591Z,38.51
2018-01-26T15:01:25.345Z,40.89
2018-01-26T15:03:53.091Z,43.52
2018-01-26T15:06:20.643Z,45.25
2018-01-26T15:08:48.282Z,48.20
2018-01-26T15:11:15.826Z,50.26
2018-01-26T15:13:43.440Z,51.69
2018-01-26T15:16:11.058Z,53.46
2018-01-26T15:18:38.589Z,54.08
2018-01-26T15:21:06.348Z,55.62
2018-01-26T15:23:33.980Z,55.68
2018-01-26T15:26:01.575Z,56.97
2018-01-26T15:28:29.166Z,58.10
2018-01-26T15:30:56.789Z,58.62
2018-01-26T15:33:24.371Z,58.35
2018-01-26T15:35:51.934Z,58.46
2018-01-26T15:38:19.663Z,58.48
2018-01-26T15:40:47.398Z,58.91
2018-01-26T15:43:14.934Z,58.80
2018-01-26T15:45:42.524Z,59.33
2018-01-26T15:48:10.075Z,59.86
2018-01-26T15:50:37.796Z,60.58
2018-01-26T15:53:05.394Z,60.64
2018-01-26T15:55:32.931Z,61.46
2018-01-26T15:58:00.716Z,61.21
2018-01-26T16:00:28.607Z,61.96
2018-01-26T16:02:56.254Z,61.86
2018-01-26T16:05:23.826Z,61.80
2018-01-26T16:07:51.498Z,62.54
2018-01-26T16:10:19.209Z,62.38
2018-01-26T16:12:46.749Z,62.20
2018-01-26T16:15:15.238Z,62.34
2018-01-26T16:17:42.970Z,62.67
2018-01-26T16:20:10.513Z,62.62
2018-01-26T16:22:38.299Z,62.60
2018-01-26T16:25:05.923Z,63.06
2018-01-26T16:27:33.735Z,62.67
2018-01-26T16:30:01.349Z,62.48
2018-01-26T16:32:28.971Z,61.76
2018-01-26T16:34:56.509Z,62.57
2018-01-26T16:37:24.310Z,62.82
2018-01-26T16:39:51.926Z,64.07
2018-01-26T16:42:19.493Z,64.99
2018-01-26T16:44:47.080Z,65.13
2018-01-26T16:47:14.881Z,65.70
2018-01-26T16:49:42.437Z,66.58
2018-01-26T16:52:10.106Z,66.88
2018-01-26T16:54:37.648Z,67.02
2018-01-26T16:57:05.217Z,67.06
2018-01-26T16:59:33.069Z,67.45
2018-01-26T17:02:00.622Z,67.38
2018-01-26T17:04:28.170Z,67.57
2018-01-26T17:06:56.023Z,67.23
2018-01-26T17:09:23.570Z,66.66
2018-01-26T17:11:51.115Z,66.90
2018-01-26T17:14:18.710Z,67.20
2018-01-26T17:16:46.258Z,68.23
2018-01-26T17:19:13.914Z,67.79
2018-01-26T17:21:41.630Z,67.30
2018-01-26T17:24:09.182Z,67.54
2018-01-26T17:26:36.802Z,67.46
2018-01-26T17:29:04.403Z,67.50
2018-01-26T17:31:31.947Z,67.93
2018-01-26T17:33:59.482Z,67.59
2018-01-26T17:36:27.336Z,67.33
2018-01-26T17:38:56.408Z,68.34
2018-01-26T17:41:24.086Z,68.20
2018-01-26T17:43:51.764Z,68.18
2018-01-26T17:46:19.313Z,68.14
2018-01-26T17:48:46.910Z,68.78
2018-01-26T17:51:14.749Z,69.25
2018-01-26T17:53:42.620Z,68.94
2018-01-26T17:56:10.289Z,69.12
2018-01-26T17:58:37.890Z,68.96
2018-01-26T18:01:05.458Z,69.51
2018-01-26T18:03:33.014Z,69.97
2018-01-26T18:06:00.649Z,70.17
2018-01-26T18:08:28.245Z,70.97
2018-01-26T18:10:55.970Z,71.07
2018-01-26T18:13:23.712Z,70.63
2018-01-26T18:15:51.296Z,70.34
2018-01-26T18:18:18.846Z,70.49
2018-01-26T18:20:46.443Z,71.19
2018-01-26T18:23:13.991Z,70.29
2018-01-26T18:25:41.801Z,70.62
2018-01-26T18:28:09.413Z,70.22
2018-01-26T18:30:37.036Z,70.72
2018-01-26T18:33:04.690Z,71.24
2018-01-26T18:35:32.314Z,71.05
2018-01-26T18:37:59.910Z,70.45
2018-01-26T18:40:27.500Z,70.57
2018-01-26T18:42:55.098Z,70.63
2018-01-26T18:45:22.645Z,72.00
2018-01-26T18:47:50.206Z,73.03
2018-01-26T18:50:17.798Z,72.25
2018-01-26T18:52:45.358Z,72.72
2018-01-26T18:55:12.910Z,72.03
2018-01-26T18:57:40.518Z,71.96
2018-01-26T19:00:08.150Z,72.48
2018-01-26T19:02:35.706Z,71.60
2018-01-26T19:05:03.349Z,71.65
2018-01-26T19:07:31.104Z,72.85
2018-01-26T19:09:58.823Z,72.71
2018-01-26T19:12:26.641Z,72.52
2018-01-26T19:14:54.181Z,73.89
2018-01-26T19:17:21.742Z,73.76
2018-01-26T19:19:50.058Z,72.78
2018-01-26T19:22:17.614Z,71.87
2018-01-26T19:24:45.169Z,72.30
2018-01-26T19:27:12.855Z,72.72
2018-01-26T19:29:40.397Z,73.24
2018-01-26T19:32:07.953Z,74.50
2018-01-26T19:34:35.805Z,75.02
2018-01-26T19:37:03.754Z,75.23
2018-01-26T19:39:31.300Z,75.31
2018-01-26T19:41:59.078Z,76.47
2018-01-26T19:44:26.878Z,76.19
2018-01-26T19:46:54.438Z,75.74
2018-01-26T19:49:22.042Z,75.98
2018-01-26T19:51:49.616Z,76.01
2018-01-26T19:54:17.349Z,75.88
2018-01-26T19:56:44.955Z,75.78
2018-01-26T19:59:12.584Z,75.69
2018-01-26T20:01:40.150Z,75.83
2018-01-26T20:04:07.923Z,76.66
2018-01-26T20:06:53.025Z,76.86
2018-01-26T20:09:26.702Z,76.48
2018-01-26T20:12:00.178Z,76.23
2018-01-26T20:14:27.793Z,76.16
2018-01-26T20:16:55.350Z,76.30
2018-01-26T20:19:22.974Z,76.31
2018-01-26T20:21:50.711Z,76.20
2018-01-26T20:24:18.282Z,76.36
2018-01-26T20:26:45.837Z,76.57
2018-01-26T20:29:13.446Z,76.50
2018-01-26T20:31:41.031Z,76.48
2018-01-26T20:34:08.574Z,76.73
2018-01-26T20:36:36.188Z,77.06
2018-01-26T20:39:03.878Z,77.41
2018-01-26T20:41:31.602Z,77.60
2018-01-26T20:43:59.415Z,77.02
2018-01-26T20:46:27.129Z,76.47
2018-01-26T20:48:54.678Z,76.37
2018-01-26T20:51:22.373Z,76.82
2018-01-26T20:53:49.946Z,77.02
2018-01-26T20:56:17.574Z,77.05
2018-01-26T20:58:45.821Z,77.06
2018-01-26T21:01:13.430Z,77.43
2018-01-26T21:03:40.981Z,77.30
2018-01-26T21:06:08.593Z,76.95
2018-01-26T21:08:36.392Z,77.14
2018-01-26T21:11:03.982Z,77.38
2018-01-26T21:13:31.638Z,77.37
2018-01-26T21:15:59.202Z,77.52
2018-01-26T21:18:26.881Z,77.60
2018-01-26T21:20:54.546Z,78.19
2018-01-26T21:23:22.187Z,78.14
2018-01-26T21:25:49.750Z,77.93
2018-01-26T21:28:17.370Z,78.40
2018-01-26T21:30:44.935Z,78.41
2018-01-26T21:33:12.489Z,78.42
2018-01-26T21:35:40.289Z,78.30
2018-01-26T21:38:07.832Z,78.58
2018-01-26T21:40:35.394Z,78.47
2018-01-26T21:43:03.033Z,78.59
2018-01-26T21:45:30.667Z,79.17
2018-01-26T21:47:58.222Z,79.23
2018-01-26T21:50:25.829Z,79.11
2018-01-26T21:52:53.392Z,78.83
2018-01-26T21:55:20.967Z,78.55
2018-01-26T21:57:48.579Z,78.27
2018-01-26T22:00:17.038Z,78.02
2018-01-26T22:02:44.587Z,78.40
2018-01-26T22:05:16.186Z,78.74
2018-01-26T22:07:43.797Z,79.21
2018-01-26T22:10:11.458Z,79.23
2018-01-26T22:12:39.089Z,78.90
2018-01-26T22:15:06.643Z,78.74
2018-01-26T22:17:34.203Z,79.14
2018-01-26T22:20:01.797Z,79.53
2018-01-26T22:22:29.552Z,79.68
2018-01-26T22:24:57.266Z,79.57
2018-01-26T22:27:25.184Z,79.35
2018-01-26T22:29:52.742Z,80.05
2018-01-26T22:32:20.303Z,80.24
2018-01-26T22:34:47.921Z,80.22
2018-01-26T22:37:15.519Z,80.50
2018-01-26T22:39:43.103Z,80.41
2018-01-26T22:42:10.789Z,80.38
2018-01-26T22:44:38.342Z,80.20
2018-01-26T22:47:05.897Z,79.48
2018-01-26T22:49:33.493Z,79.65
2018-01-26T22:52:01.172Z,79.75
2018-01-26T22:54:28.746Z,79.69
2018-01-26T22:56:56.338Z,79.97
2018-01-26T22:59:23.904Z,80.17
2018-01-26T23:01:51.544Z,80.10
2018-01-26T23:04:19.142Z,80.03
2018-01-26T23:06:46.774Z,79.99
2018-01-26T23:09:14.412Z,79.83
2018-01-26T23:11:42.095Z,79.55
2018-01-26T23:14:09.642Z,79.35
2018-01-26T23:16:37.347Z,79.07
2018-01-26T23:19:04.942Z,79.16
2018-01-26T23:21:32.485Z,78.86
2018-01-26T23:24:00.205Z,78.73
2018-01-26T23:26:27.796Z,79.44
2018-01-26T23:28:55.495Z,80.08
2018-01-26T23:31:23.042Z,79.97
2018-01-26T23:33:50.866Z,79.79
2018-01-26T23:36:18.422Z,79.66
2018-01-26T23:38:45.970Z,79.77
2018-01-26T23:41:13.722Z,79.73
2018-01-26T23:43:41.537Z,80.00
2018-01-26T23:46:09.145Z,79.68
2018-01-26T23:48:36.975Z,79.64
2018-01-26T23:51:04.617Z,79.60
2018-01-26T23:53:32.227Z,79.64
2018-01-26T23:55:59.829Z,79.65
2018-01-26T23:58:27.378Z,79.72
